Time;durP1;ratioP1;P1;durP2;ratioP2;P2;SDS_P1;SDS_P2;PMS_P1;PMS_P2;Temp;Humidity;BMP_temperature;BMP_pressure;BME280_temperature;BME280_humidity;BME280_pressure;Samples;Min_cycle;Max_cycle;Signal;HPM_P1;HPM_P2
2021/08/18 00:00:14;;;;;;;16.08;10.82;;;13.40;95.30;;;;;;5095971;28;20487;-55
2021/08/18 00:02:40;;;;;;;15.50;10.73;;;13.50;95.30;;;;;;5095371;28;20039;-55
2021/08/18 00:05:09;;;;;;;13.65;9.73;;;13.50;95.10;;;;;;5095231;28;20048;-52
2021/08/18 00:07:34;;;;;;;15.02;10.27;;;13.50;95.20;;;;;;5094644;28;20038;-54
2021/08/18 00:10:00;;;;;;;14.63;9.93;;;13.60;95.10;;;;;;5094994;28;20032;-57
2021/08/18 00:12:26;;;;;;;12.05;9.80;;;13.60;95.10;;;;;;5094475;28;20055;-53
2021/08/18 00:14:52;;;;;;;13.98;10.35;;;13.50;95.20;;;;;;5094993;28;20467;-55
2021/08/18 00:17:19;;;;;;;13.48;10.27;;;13.50;95.30;;;;;;5094737;28;20028;-56
2021/08/18 00:19:44;;;;;;;15.68;10.05;;;13.50;95.20;;;;;;5094904;28;20036;-53
2021/08/18 00:22:10;;;;;;;15.95;11.63;;;13.50;95.30;;;;;;5094492;28;20422;-55
2021/08/18 00:24:35;;;;;;;14.45;10.50;;;13.40;95.50;;;;;;5094343;28;20032;-55
2021/08/18 00:27:01;;;;;;;14.13;9.52;;;13.40;95.60;;;;;;5094073;28;20043;-54
2021/08/18 00:29:27;;;;;;;16.35;11.10;;;13.50;95.40;;;;;;5094006;28;20111;-54
2021/08/18 00:31:52;;;;;;;17.50;11.48;;;13.40;95.50;;;;;;5094612;28;20028;-53
2021/08/18 00:34:18;;;;;;;15.57;11.05;;;13.50;95.50;;;;;;5094368;28;20407;-54
2021/08/18 00:36:44;;;;;;;17.25;11.07;;;13.40;95.60;;;;;;5095063;28;20031;-54
2021/08/18 00:39:09;;;;;;;14.05;11.00;;;13.40;95.80;;;;;;5094972;28;20464;-53
2021/08/18 00:41:35;;;;;;;14.88;10.75;;;13.40;95.80;;;;;;5093989;28;20032;-57
2021/08/18 00:44:00;;;;;;;15.18;11.20;;;13.30;96.00;;;;;;5076619;28;20104;-52
2021/08/18 00:46:26;;;;;;;15.13;11.07;;;13.30;96.10;;;;;;5094321;28;20036;-53
2021/08/18 00:48:52;;;;;;;16.08;11.75;;;13.30;96.10;;;;;;5093925;28;20468;-53
2021/08/18 00:51:17;;;;;;;13.73;10.13;;;13.30;96.20;;;;;;5094057;28;20036;-56
2021/08/18 00:53:43;;;;;;;15.55;10.43;;;13.20;96.40;;;;;;5093837;28;20034;-50
2021/08/18 00:56:10;;;;;;;14.32;10.15;;;13.30;96.30;;;;;;5094378;28;20040;-53
2021/08/18 00:58:35;;;;;;;13.50;10.40;;;13.30;96.30;;;;;;5075859;28;20047;-56
2021/08/18 01:01:01;;;;;;;13.80;10.23;;;13.30;96.30;;;;;;5094062;28;20036;-53
2021/08/18 01:03:28;;;;;;;16.48;10.82;;;13.30;96.30;;;;;;5094271;28;20064;-55
2021/08/18 01:05:54;;;;;;;12.68;9.65;;;13.20;96.60;;;;;;5093100;28;20044;-56
2021/08/18 01:08:20;;;;;;;14.88;9.98;;;13.20;96.40;;;;;;5093348;28;20027;-55
2021/08/18 01:10:46;;;;;;;13.55;10.30;;;13.30;96.30;;;;;;5093403;28;20024;-54
2021/08/18 01:13:12;;;;;;;14.00;10.45;;;13.20;96.50;;;;;;5093436;28;20057;-53
2021/08/18 01:15:37;;;;;;;14.27;10.38;;;13.30;96.40;;;;;;5074862;28;20070;-50
2021/08/18 01:18:05;;;;;;;14.90;9.90;;;13.40;96.30;;;;;;5092008;28;20611;-52
2021/08/18 01:20:33;;;;;;;12.77;9.10;;;13.40;96.10;;;;;;5092847;28;20480;-52
2021/08/18 01:22:59;;;;;;;15.65;10.27;;;13.40;96.10;;;;;;5092743;28;20032;-54
2021/08/18 01:25:25;;;;;;;12.98;9.80;;;13.40;96.20;;;;;;5092329;28;20032;-51
2021/08/18 01:27:54;;;;;;;15.55;10.18;;;13.20;96.50;;;;;;5092452;28;20059;-53
2021/08/18 01:30:22;;;;;;;12.05;10.40;;;13.20;96.60;;;;;;5092755;28;20024;-53
2021/08/18 01:32:57;;;;;;;15.48;11.07;;;13.20;96.80;;;;;;5092356;28;20024;-55
2021/08/18 01:35:26;;;;;;;13.50;9.30;;;13.20;97.00;;;;;;5092500;28;20483;-58
2021/08/18 01:37:52;;;;;;;13.02;9.30;;;13.20;96.70;;;;;;5092728;28;20369;-52
2021/08/18 01:40:19;;;;;;;13.30;9.60;;;13.20;96.80;;;;;;5092670;28;20476;-55
2021/08/18 01:42:46;;;;;;;12.77;9.55;;;13.20;96.40;;;;;;5092556;28;20069;-56
2021/08/18 01:45:24;;;;;;;13.07;10.02;;;13.30;96.30;;;;;;5092667;28;20031;-54
2021/08/18 01:47:51;;;;;;;12.85;9.98;;;13.20;96.60;;;;;;5092254;28;20090;-56
2021/08/18 01:50:17;;;;;;;14.00;10.27;;;13.20;96.80;;;;;;5092841;28;20484;-55
2021/08/18 01:52:43;;;;;;;13.40;10.10;;;13.10;97.00;;;;;;5092485;28;20028;-53
2021/08/18 01:55:09;;;;;;;16.30;11.18;;;13.10;97.20;;;;;;5092165;28;20028;-54
2021/08/18 01:57:36;;;;;;;15.40;10.40;;;13.10;97.30;;;;;;5092321;28;20035;-56
2021/08/18 02:00:05;;;;;;;14.02;10.05;;;13.20;97.20;;;;;;5092325;28;20444;-56
2021/08/18 02:02:31;;;;;;;14.10;10.45;;;13.20;97.40;;;;;;5092333;28;20040;-57
2021/08/18 02:04:57;;;;;;;16.30;10.55;;;13.30;97.30;;;;;;5092477;28;20641;-55
2021/08/18 02:07:23;;;;;;;12.77;9.73;;;13.30;97.20;;;;;;5091884;28;20057;-50
2021/08/18 02:09:49;;;;;;;16.30;11.43;;;13.30;97.30;;;;;;5092165;28;20039;-51
2021/08/18 02:12:14;;;;;;;13.15;10.32;;;13.30;97.30;;;;;;5092143;28;20036;-54
2021/08/18 02:14:40;;;;;;;15.85;11.60;;;13.30;97.40;;;;;;5091571;28;20539;-55
2021/08/18 02:17:06;;;;;;;14.45;10.55;;;13.20;97.30;;;;;;5091419;28;20032;-54
2021/08/18 02:19:32;;;;;;;13.30;9.27;;;13.30;97.20;;;;;;5091736;28;20028;-55
2021/08/18 02:21:58;;;;;;;17.02;11.18;;;13.30;97.20;;;;;;5091920;28;20040;-57
2021/08/18 02:24:24;;;;;;;17.65;10.85;;;13.30;97.10;;;;;;5091752;28;20063;-58
2021/08/18 02:26:49;;;;;;;11.68;9.27;;;13.30;97.30;;;;;;5072968;28;20066;-56
2021/08/18 02:29:15;;;;;;;15.60;9.75;;;13.30;97.10;;;;;;5090939;28;20445;-57
2021/08/18 02:31:40;;;;;;;15.90;10.32;;;13.30;97.20;;;;;;5091793;28;20040;-54
2021/08/18 02:34:08;;;;;;;15.73;10.73;;;13.30;97.30;;;;;;5091688;28;20035;-54
2021/08/18 02:36:37;;;;;;;14.85;10.70;;;13.30;97.20;;;;;;5090492;28;20027;-58
2021/08/18 02:39:04;;;;;;;15.38;9.98;;;13.30;97.20;;;;;;5090727;28;20503;-53
2021/08/18 02:41:30;;;;;;;14.75;10.75;;;13.30;97.30;;;;;;5091658;28;20075;-55
2021/08/18 02:43:55;;;;;;;15.82;10.20;;;13.20;97.50;;;;;;5091384;28;20080;-57
2021/08/18 02:46:21;;;;;;;14.98;9.82;;;13.20;97.50;;;;;;5091752;28;20028;-58
2021/08/18 02:48:46;;;;;;;14.98;10.15;;;13.30;97.40;;;;;;5096029;28;20068;-56
2021/08/18 02:51:12;;;;;;;18.65;10.50;;;13.20;97.70;;;;;;5091451;28;20089;-56
2021/08/18 02:53:38;;;;;;;16.27;10.55;;;13.20;97.60;;;;;;5091678;28;20044;-56
2021/08/18 02:56:04;;;;;;;14.90;10.02;;;13.30;97.60;;;;;;5091090;28;20106;-50
2021/08/18 02:58:30;;;;;;;14.85;10.93;;;13.20;97.80;;;;;;5091342;28;20027;-52
2021/08/18 03:00:56;;;;;;;14.18;9.85;;;13.20;97.80;;;;;;5091387;28;20044;-56
2021/08/18 03:03:22;;;;;;;17.15;10.27;;;13.30;97.70;;;;;;5091160;28;20400;-53
2021/08/18 03:05:47;;;;;;;14.20;9.98;;;13.30;97.70;;;;;;5091052;28;20040;-51
2021/08/18 03:08:13;;;;;;;13.90;9.70;;;13.40;97.90;;;;;;5091012;28;20124;-53
2021/08/18 03:10:38;;;;;;;14.10;10.88;;;13.50;97.40;;;;;;5091041;28;20036;-57
2021/08/18 03:13:04;;;;;;;14.43;10.10;;;13.60;97.30;;;;;;5090401;28;20597;-54
2021/08/18 03:15:30;;;;;;;15.52;10.27;;;13.60;97.20;;;;;;5091213;28;20039;-56
2021/08/18 03:17:56;;;;;;;15.52;10.52;;;13.60;97.20;;;;;;5091257;28;20124;-54
2021/08/18 03:20:21;;;;;;;14.13;10.32;;;13.70;97.10;;;;;;5090978;28;20077;-54
2021/08/18 03:22:47;;;;;;;16.33;10.35;;;13.60;97.30;;;;;;5090898;28;20088;-52
2021/08/18 03:25:14;;;;;;;17.13;11.50;;;13.60;97.40;;;;;;5090865;28;20107;-54
2021/08/18 03:27:40;;;;;;;16.40;10.82;;;13.40;97.70;;;;;;5090686;28;20051;-52
2021/08/18 03:30:07;;;;;;;18.83;12.40;;;13.40;97.70;;;;;;5091175;28;20032;-55
2021/08/18 03:32:33;;;;;;;15.57;10.68;;;13.40;97.80;;;;;;5090999;28;20089;-52
2021/08/18 03:34:58;;;;;;;13.80;10.00;;;13.40;98.00;;;;;;5091203;28;20421;-51
2021/08/18 03:37:24;;;;;;;17.95;11.20;;;13.40;98.00;;;;;;5090458;28;20032;-54
2021/08/18 03:39:49;;;;;;;15.45;11.10;;;13.40;98.00;;;;;;5072821;28;20028;-57
2021/08/18 03:42:15;;;;;;;16.55;10.95;;;13.40;98.30;;;;;;5094040;28;20036;-56
2021/08/18 03:44:41;;;;;;;18.80;11.05;;;13.40;98.30;;;;;;5094784;28;20119;-54
2021/08/18 03:47:06;;;;;;;15.85;11.10;;;13.40;98.30;;;;;;5094443;28;20032;-53
2021/08/18 03:49:32;;;;;;;15.63;10.73;;;13.40;98.50;;;;;;5094163;28;20036;-56
2021/08/18 03:51:58;;;;;;;17.92;11.27;;;13.50;98.30;;;;;;5094509;28;20036;-52
2021/08/18 03:54:23;;;;;;;16.17;11.13;;;13.50;98.40;;;;;;5094421;28;20031;-54
2021/08/18 03:56:49;;;;;;;16.13;11.48;;;13.50;98.50;;;;;;5093924;28;20028;-54
2021/08/18 03:59:14;;;;;;;15.10;10.75;;;13.50;98.60;;;;;;5094369;28;20054;-50
2021/08/18 04:01:40;;;;;;;15.52;10.02;;;13.50;98.50;;;;;;5093964;28;20130;-55
2021/08/18 04:04:06;;;;;;;15.25;10.38;;;13.50;98.60;;;;;;5094372;28;20040;-53
2021/08/18 04:06:31;;;;;;;14.77;11.40;;;13.50;98.80;;;;;;5093784;28;20028;-55
2021/08/18 04:08:58;;;;;;;17.08;10.68;;;13.60;98.50;;;;;;5094257;28;20046;-51
2021/08/18 04:11:24;;;;;;;14.63;9.50;;;13.60;98.50;;;;;;5075126;28;20032;-56
2021/08/18 04:13:50;;;;;;;14.88;10.82;;;13.60;98.60;;;;;;5094274;28;20020;-51
2021/08/18 04:16:15;;;;;;;14.98;9.63;;;13.60;98.50;;;;;;5093874;28;20071;-55
2021/08/18 04:18:41;;;;;;;13.55;10.32;;;13.60;98.60;;;;;;5094089;28;20146;-56
2021/08/18 04:21:06;;;;;;;16.98;10.32;;;13.60;98.50;;;;;;5094060;28;20084;-55
2021/08/18 04:23:32;;;;;;;14.32;9.38;;;13.60;98.40;;;;;;5094171;28;20040;-53
2021/08/18 04:25:58;;;;;;;15.75;10.75;;;13.70;98.30;;;;;;5094198;28;20040;-54
2021/08/18 04:28:23;;;;;;;15.38;10.57;;;13.70;98.30;;;;;;5098125;28;20389;-54
2021/08/18 04:30:49;;;;;;;16.02;10.32;;;13.70;98.50;;;;;;5096683;28;20031;-56
2021/08/18 04:33:15;;;;;;;16.38;10.38;;;13.70;98.40;;;;;;5075779;28;20067;-58
2021/08/18 04:35:40;;;;;;;14.60;9.98;;;13.60;98.60;;;;;;5075104;28;20024;-52
2021/08/18 04:38:06;;;;;;;13.90;10.20;;;13.80;98.40;;;;;;5093457;28;20032;-54
2021/08/18 04:40:31;;;;;;;15.55;10.30;;;13.80;98.40;;;;;;5075738;28;20040;-56
2021/08/18 04:42:57;;;;;;;13.05;9.55;;;13.80;98.50;;;;;;5093820;28;20492;-54
2021/08/18 04:45:22;;;;;;;14.82;9.38;;;13.80;98.50;;;;;;5090709;28;20489;-54
2021/08/18 04:47:48;;;;;;;15.25;10.48;;;13.90;98.40;;;;;;5065366;28;20032;-56
2021/08/18 04:50:15;;;;;;;15.02;9.15;;;13.90;98.40;;;;;;5082260;28;20537;-54
2021/08/18 04:52:41;;;;;;;13.52;9.27;;;13.90;98.30;;;;;;5082228;28;20035;-55
2021/08/18 04:55:07;;;;;;;13.57;9.15;;;14.00;98.20;;;;;;5086893;28;20036;-54
2021/08/18 04:57:32;;;;;;;14.68;9.95;;;14.10;98.10;;;;;;5093301;28;20065;-56
2021/08/18 04:59:58;;;;;;;14.60;9.68;;;14.10;98.10;;;;;;5093594;28;20501;-53
2021/08/18 05:02:24;;;;;;;14.38;9.38;;;14.10;98.10;;;;;;5092960;28;20050;-57
2021/08/18 05:04:49;;;;;;;14.25;9.15;;;14.10;98.20;;;;;;5093339;28;20443;-57
2021/08/18 05:07:15;;;;;;;15.00;8.80;;;14.10;98.10;;;;;;5093038;28;20028;-55
2021/08/18 05:09:40;;;;;;;11.57;8.77;;;14.20;98.10;;;;;;5088937;28;20499;-56
2021/08/18 05:12:06;;;;;;;13.68;8.95;;;14.20;98.10;;;;;;5081209;28;20337;-54
2021/08/18 05:14:32;;;;;;;12.43;8.02;;;14.30;98.00;;;;;;5064002;28;20046;-55
2021/08/18 05:16:57;;;;;;;13.45;8.82;;;14.40;97.80;;;;;;5086286;28;20101;-57
2021/08/18 05:19:23;;;;;;;11.43;8.73;;;14.40;97.90;;;;;;5087663;28;20051;-55
2021/08/18 05:21:48;;;;;;;13.50;9.35;;;14.40;97.90;;;;;;5077884;28;20567;-55
2021/08/18 05:24:14;;;;;;;10.57;7.70;;;14.50;97.80;;;;;;5077424;28;20403;-57
2021/08/18 05:26:39;;;;;;;11.85;7.63;;;14.50;97.90;;;;;;5080921;28;20043;-56
2021/08/18 05:29:05;;;;;;;10.98;8.05;;;14.60;97.70;;;;;;5076525;28;20036;-56
2021/08/18 05:31:31;;;;;;;15.85;8.90;;;14.40;97.80;;;;;;5072116;28;20498;-58
2021/08/18 05:33:56;;;;;;;14.52;8.95;;;14.40;98.00;;;;;;5054425;28;20028;-56
2021/08/18 05:36:22;;;;;;;12.25;7.78;;;14.30;98.50;;;;;;5086666;28;20040;-52
2021/08/18 05:38:48;;;;;;;11.13;8.35;;;14.40;98.20;;;;;;5073858;28;20032;-52
2021/08/18 05:41:14;;;;;;;13.90;8.65;;;14.50;98.10;;;;;;5092385;28;20043;-51
2021/08/18 05:43:40;;;;;;;10.82;7.95;;;14.50;98.10;;;;;;5074704;28;20044;-51
2021/08/18 05:46:05;;;;;;;13.30;8.65;;;14.60;98.00;;;;;;5092023;28;20040;-51
2021/08/18 05:48:31;;;;;;;14.18;8.70;;;14.60;98.00;;;;;;5093755;28;20085;-58
2021/08/18 05:50:57;;;;;;;12.27;7.57;;;14.70;97.90;;;;;;5094317;28;20044;-57
2021/08/18 05:53:23;;;;;;;12.68;7.95;;;14.70;98.00;;;;;;5093904;28;20085;-54
2021/08/18 05:55:50;;;;;;;13.45;8.95;;;14.70;98.00;;;;;;5092168;28;20036;-55
2021/08/18 05:58:16;;;;;;;13.75;8.27;;;14.60;98.40;;;;;;5092633;28;20118;-58
2021/08/18 06:00:42;;;;;;;12.98;8.90;;;14.80;98.10;;;;;;5092250;28;20035;-55
2021/08/18 06:03:08;;;;;;;12.63;7.32;;;14.80;98.20;;;;;;5091320;28;20027;-57
2021/08/18 06:05:33;;;;;;;12.40;7.85;;;14.90;98.00;;;;;;5091580;28;20101;-54
2021/08/18 06:07:59;;;;;;;9.48;7.00;;;15.00;98.10;;;;;;5091490;28;20483;-57
2021/08/18 06:10:25;;;;;;;11.23;7.78;;;15.10;98.00;;;;;;5091734;28;20058;-55
2021/08/18 06:12:51;;;;;;;10.63;7.63;;;15.10;97.90;;;;;;5091045;28;20450;-56
2021/08/18 06:15:16;;;;;;;12.85;7.93;;;15.20;97.80;;;;;;5073733;28;20086;-53
2021/08/18 06:17:46;;;;;;;11.20;7.55;;;15.20;98.10;;;;;;5091534;28;20024;-52
2021/08/18 06:20:12;;;;;;;13.02;7.80;;;15.00;98.50;;;;;;5092364;28;20028;-56
2021/08/18 06:22:38;;;;;;;10.25;6.75;;;15.00;98.60;;;;;;5092835;28;20036;-54
2021/08/18 06:25:04;;;;;;;10.35;6.60;;;15.10;98.50;;;;;;5092660;28;20059;-56
2021/08/18 06:27:30;;;;;;;13.43;6.82;;;15.20;98.40;;;;;;5092041;28;20110;-57
2021/08/18 06:29:57;;;;;;;10.98;7.20;;;15.30;98.30;;;;;;5093309;28;20066;-53
2021/08/18 06:32:22;;;;;;;9.63;6.80;;;15.20;98.30;;;;;;5092606;28;20033;-52
2021/08/18 06:34:49;;;;;;;10.02;6.85;;;15.30;98.20;;;;;;5092679;28;20040;-58
2021/08/18 06:37:14;;;;;;;9.25;6.68;;;15.40;98.20;;;;;;5091686;28;20105;-51
2021/08/18 06:39:40;;;;;;;8.18;6.55;;;15.40;98.30;;;;;;5092712;28;20090;-52
2021/08/18 06:42:06;;;;;;;9.65;6.60;;;15.40;98.30;;;;;;5092244;28;20036;-56
2021/08/18 06:44:32;;;;;;;9.23;6.72;;;15.60;98.00;;;;;;5092230;28;20032;-53
2021/08/18 06:46:58;;;;;;;10.90;6.35;;;15.60;97.90;;;;;;5092223;28;20020;-52
2021/08/18 06:49:24;;;;;;;9.38;6.63;;;15.60;98.00;;;;;;5092610;28;20079;-52
2021/08/18 06:51:49;;;;;;;9.70;6.72;;;15.60;98.10;;;;;;5091828;28;20037;-54
2021/08/18 06:54:15;;;;;;;9.13;6.20;;;15.80;97.70;;;;;;5092956;28;20032;-52
2021/08/18 06:56:40;;;;;;;10.43;6.80;;;15.90;97.70;;;;;;5093103;28;20109;-54
2021/08/18 06:59:06;;;;;;;10.00;7.35;;;15.90;97.40;;;;;;5075372;28;20083;-52
2021/08/18 07:01:31;;;;;;;10.43;6.45;;;15.80;97.60;;;;;;5094323;28;20119;-52
2021/08/18 07:03:57;;;;;;;8.23;6.13;;;15.90;97.90;;;;;;5092527;28;20090;-53
2021/08/18 07:06:23;;;;;;;10.23;6.90;;;16.00;97.30;;;;;;5071352;28;20120;-56
2021/08/18 07:08:48;;;;;;;9.57;6.72;;;16.00;97.20;;;;;;5074261;28;20031;-53
2021/08/18 07:11:14;;;;;;;10.02;7.05;;;16.10;97.20;;;;;;5092135;28;20047;-52
2021/08/18 07:13:39;;;;;;;8.35;6.50;;;16.10;97.20;;;;;;5092130;28;20032;-55
2021/08/18 07:16:05;;;;;;;8.68;6.03;;;16.10;97.30;;;;;;5093088;28;20024;-53
2021/08/18 07:18:31;;;;;;;9.85;6.75;;;16.10;97.30;;;;;;5095832;28;20032;-56
2021/08/18 07:20:57;;;;;;;9.82;6.32;;;16.10;97.20;;;;;;5095456;28;20070;-56
2021/08/18 07:23:23;;;;;;;8.98;6.47;;;16.10;97.20;;;;;;5095559;28;20416;-56
2021/08/18 07:25:49;;;;;;;8.05;6.47;;;16.20;96.80;;;;;;5095162;28;20064;-56
2021/08/18 07:28:15;;;;;;;8.80;5.95;;;16.10;96.80;;;;;;5094744;28;20066;-54
2021/08/18 07:30:41;;;;;;;9.07;6.28;;;16.10;97.20;;;;;;5095412;28;20043;-55
2021/08/18 07:33:07;;;;;;;9.68;6.05;;;16.20;97.00;;;;;;5095262;28;20032;-54
2021/08/18 07:35:33;;;;;;;7.07;5.50;;;16.20;97.00;;;;;;5095168;28;20035;-53
2021/08/18 07:37:58;;;;;;;10.00;6.00;;;16.40;96.90;;;;;;5095505;28;20020;-54
2021/08/18 07:40:25;;;;;;;9.48;6.03;;;16.40;96.80;;;;;;5095292;28;20104;-53
2021/08/18 07:42:52;;;;;;;10.07;5.88;;;16.40;96.60;;;;;;5095572;28;20052;-55
2021/08/18 07:45:19;;;;;;;10.52;5.45;;;16.30;96.70;;;;;;5095022;28;20111;-56
2021/08/18 07:47:47;;;;;;;9.63;6.15;;;16.40;96.80;;;;;;5094849;28;20446;-54
2021/08/18 07:50:13;;;;;;;8.60;5.75;;;16.40;96.70;;;;;;5094714;28;20032;-55
2021/08/18 07:52:39;;;;;;;6.80;5.75;;;16.50;96.70;;;;;;5094645;28;20051;-54
2021/08/18 07:55:06;;;;;;;7.43;5.50;;;16.60;96.50;;;;;;5095115;28;20404;-51
2021/08/18 07:57:34;;;;;;;8.32;5.82;;;16.60;96.70;;;;;;5094884;28;20071;-55
2021/08/18 08:00:03;;;;;;;6.85;5.43;;;16.60;96.60;;;;;;5094939;28;20119;-51
2021/08/18 08:02:29;;;;;;;9.88;5.20;;;16.60;96.40;;;;;;5095224;28;20453;-55
2021/08/18 08:04:54;;;;;;;8.32;5.32;;;16.50;96.40;;;;;;5077064;28;20036;-58
2021/08/18 08:07:20;;;;;;;6.90;5.38;;;16.60;96.50;;;;;;5094363;28;20038;-54
2021/08/18 08:09:46;;;;;;;6.55;5.80;;;16.60;96.50;;;;;;5094925;28;20056;-50
2021/08/18 08:12:11;;;;;;;7.35;4.72;;;16.50;96.60;;;;;;5095082;28;20067;-55
2021/08/18 08:14:37;;;;;;;8.18;5.40;;;16.50;96.50;;;;;;5095076;28;20090;-55
2021/08/18 08:17:03;;;;;;;7.55;5.50;;;16.60;96.30;;;;;;5094478;28;20020;-57
2021/08/18 08:19:28;;;;;;;6.97;5.10;;;16.70;96.30;;;;;;5089994;28;20075;-55
2021/08/18 08:21:54;;;;;;;6.43;4.75;;;16.80;96.00;;;;;;5075562;28;20058;-56
2021/08/18 08:24:19;;;;;;;5.57;5.00;;;16.70;96.40;;;;;;5074330;28;20025;-53
2021/08/18 08:26:45;;;;;;;6.38;4.90;;;16.90;95.80;;;;;;5073051;28;20044;-55
2021/08/18 08:29:11;;;;;;;6.55;4.90;;;16.90;96.00;;;;;;5056329;28;20028;-53
2021/08/18 08:31:37;;;;;;;6.82;4.80;;;17.00;96.10;;;;;;5074104;28;20037;-54
2021/08/18 08:34:03;;;;;;;8.60;4.88;;;17.00;95.70;;;;;;5074312;28;20174;-57
2021/08/18 08:36:28;;;;;;;9.68;4.38;;;17.10;95.90;;;;;;5074157;28;20091;-53
2021/08/18 08:38:54;;;;;;;5.70;4.43;;;17.20;95.70;;;;;;5075602;28;20029;-54
2021/08/18 08:41:20;;;;;;;5.57;4.30;;;17.20;95.40;;;;;;5078642;28;20028;-53
2021/08/18 08:43:46;;;;;;;5.35;4.00;;;17.20;95.30;;;;;;5096935;28;20080;-54
2021/08/18 08:46:12;;;;;;;4.85;3.78;;;17.10;95.30;;;;;;5094187;28;20051;-57
2021/08/18 08:48:41;;;;;;;6.10;4.32;;;17.00;95.30;;;;;;5094176;28;20484;-56
2021/08/18 08:51:07;;;;;;;6.10;4.20;;;17.00;95.30;;;;;;5093871;28;20032;-52
2021/08/18 08:53:34;;;;;;;5.97;3.85;;;17.10;95.40;;;;;;5093652;28;20088;-54
2021/08/18 08:56:00;;;;;;;6.78;4.00;;;17.30;95.20;;;;;;5093671;28;20134;-53
2021/08/18 08:58:25;;;;;;;5.88;4.43;;;17.50;94.70;;;;;;5093838;28;20044;-56
2021/08/18 09:00:52;;;;;;;6.45;4.78;;;17.70;94.30;;;;;;5093529;28;20100;-58
2021/08/18 09:03:22;;;;;;;6.28;4.18;;;17.70;94.40;;;;;;5094037;28;20036;-59
2021/08/18 09:05:48;;;;;;;6.15;4.10;;;17.70;94.20;;;;;;5093923;28;20036;-57
2021/08/18 09:08:23;;;;;;;4.85;3.95;;;17.70;93.50;;;;;;5090486;28;20058;-56
2021/08/18 09:11:11;;;;;;;6.20;4.25;;;17.40;93.60;;;;;;5073900;28;20044;-55
2021/08/18 09:13:40;;;;;;;4.30;3.65;;;17.40;93.70;;;;;;5073265;28;21066;-52
2021/08/18 09:16:05;;;;;;;6.43;3.70;;;17.40;94.10;;;;;;5090264;28;20507;-57
2021/08/18 09:18:35;;;;;;;5.28;3.63;;;17.50;94.40;;;;;;5093975;28;20032;-55
2021/08/18 09:21:01;;;;;;;4.15;3.70;;;17.40;94.60;;;;;;5074957;28;20033;-51
2021/08/18 09:23:26;;;;;;;4.30;3.70;;;17.50;94.60;;;;;;5073128;28;20039;-52
2021/08/18 09:25:52;;;;;;;5.45;3.83;;;17.60;94.60;;;;;;5074918;28;20102;-59
2021/08/18 09:28:19;;;;;;;3.60;3.30;;;17.70;94.30;;;;;;5077147;28;20036;-58
2021/08/18 09:30:47;;;;;;;6.20;3.50;;;17.80;94.20;;;;;;5075812;28;20024;-49
2021/08/18 09:33:16;;;;;;;4.45;3.40;;;17.80;94.10;;;;;;5073612;28;20085;-55
2021/08/18 09:35:43;;;;;;;5.68;3.33;;;17.80;94.20;;;;;;5055048;28;20058;-55
2021/08/18 09:38:15;;;;;;;3.47;3.13;;;17.70;94.00;;;;;;5072201;28;20033;-50
2021/08/18 09:40:46;;;;;;;4.32;3.08;;;17.80;93.90;;;;;;5054762;28;20029;-56
2021/08/18 09:43:16;;;;;;;3.33;2.78;;;17.90;93.60;;;;;;5072605;28;20028;-52
2021/08/18 09:45:42;;;;;;;3.00;2.42;;;17.70;93.60;;;;;;5072353;28;20059;-54
2021/08/18 09:48:11;;;;;;;2.70;2.30;;;17.60;93.90;;;;;;5072468;28;20020;-57
2021/08/18 09:50:58;;;;;;;4.75;2.65;;;17.50;93.80;;;;;;5072299;28;20043;-51
2021/08/18 09:53:40;;;;;;;2.90;2.60;;;17.50;94.30;;;;;;5073607;28;20036;-58
2021/08/18 09:56:11;;;;;;;4.88;3.08;;;17.50;94.20;;;;;;5054425;28;20047;-53
2021/08/18 09:58:50;;;;;;;4.20;3.38;;;17.80;94.10;;;;;;5072609;28;20029;-56
2021/08/18 10:01:17;;;;;;;5.10;3.17;;;18.10;93.20;;;;;;5077645;28;20024;-55
2021/08/18 10:03:50;;;;;;;3.33;3.03;;;18.30;92.60;;;;;;5085615;28;20048;-57
2021/08/18 10:06:16;;;;;;;4.65;3.78;;;18.40;92.70;;;;;;5083246;28;20035;-56
2021/08/18 10:08:44;;;;;;;4.80;3.60;;;18.60;92.10;;;;;;5092297;28;20453;-54
2021/08/18 10:11:11;;;;;;;5.05;3.40;;;18.70;91.40;;;;;;5092828;28;20028;-52
2021/08/18 10:13:37;;;;;;;5.82;3.17;;;18.90;91.40;;;;;;5088253;28;20055;-58
2021/08/18 10:16:03;;;;;;;5.97;4.03;;;19.00;91.60;;;;;;5073718;28;20451;-60
2021/08/18 10:18:37;;;;;;;4.30;3.40;;;19.10;91.50;;;;;;5078083;28;20059;-57
2021/08/18 10:21:11;;;;;;;5.88;3.53;;;19.00;91.00;;;;;;5087703;28;20054;-58
2021/08/18 10:24:06;;;;;;;3.55;2.97;;;18.90;91.20;;;;;;5038372;28;20528;-59
2021/08/18 10:26:34;;;;;;;4.95;3.30;;;19.10;90.50;;;;;;5072072;28;20489;-60
2021/08/18 10:29:05;;;;;;;4.68;3.65;;;19.10;89.30;;;;;;5054496;28;20043;-59
2021/08/18 10:31:43;;;;;;;4.78;3.45;;;19.00;88.90;;;;;;5088559;28;20024;-58
2021/08/18 10:34:10;;;;;;;4.30;3.53;;;18.90;89.90;;;;;;5093110;28;20034;-58
2021/08/18 10:36:42;;;;;;;5.28;3.22;;;18.90;89.80;;;;;;5091683;28;20081;-56
2021/08/18 10:39:23;;;;;;;5.55;3.95;;;18.90;89.60;;;;;;5092982;28;20074;-55
2021/08/18 10:42:16;;;;;;;5.00;3.38;;;19.10;89.90;;;;;;5075201;28;20028;-56
2021/08/18 10:44:54;;;;;;;3.90;3.03;;;18.90;88.80;;;;;;5072162;28;20037;-59
2021/08/18 10:47:32;;;;;;;4.68;3.47;;;19.00;89.60;;;;;;5077866;28;20043;-56
2021/08/18 10:50:23;;;;;;;4.18;3.40;;;19.10;89.30;;;;;;5093834;28;20077;-57
2021/08/18 10:52:50;;;;;;;6.18;3.50;;;19.10;88.70;;;;;;5078439;28;20032;-55
2021/08/18 10:55:23;;;;;;;5.05;3.30;;;19.00;89.40;;;;;;5096189;28;20052;-56
2021/08/18 10:57:51;;;;;;;6.10;3.33;;;19.20;89.40;;;;;;5078731;28;20032;-55
2021/08/18 11:00:33;;;;;;;7.47;3.30;;;19.30;89.20;;;;;;5096929;28;20039;-58
2021/08/18 11:03:14;;;;;;;4.03;3.17;;;19.30;87.90;;;;;;5096120;28;20039;-57
2021/08/18 11:05:40;;;;;;;6.05;3.10;;;19.20;88.40;;;;;;5095997;28;20032;-53
2021/08/18 11:08:25;;;;;;;4.97;2.97;;;19.10;87.50;;;;;;5096127;28;20085;-51
2021/08/18 11:10:54;;;;;;;4.05;2.88;;;19.10;88.40;;;;;;5096396;28;20030;-56
2021/08/18 11:13:39;;;;;;;5.65;3.38;;;19.40;88.20;;;;;;5096550;28;20027;-52
2021/08/18 11:16:18;;;;;;;4.20;2.67;;;19.70;84.70;;;;;;5095706;28;20027;-57
2021/08/18 11:18:56;;;;;;;5.32;2.83;;;19.60;84.50;;;;;;5096183;28;20043;-56
2021/08/18 11:21:28;;;;;;;4.97;3.00;;;19.70;83.40;;;;;;5081245;28;20024;-54
2021/08/18 11:24:02;;;;;;;4.38;3.10;;;19.50;83.40;;;;;;5096375;28;20115;-55
2021/08/18 11:26:32;;;;;;;4.25;3.10;;;19.60;83.80;;;;;;5095788;28;20040;-56
2021/08/18 11:29:02;;;;;;;3.67;3.03;;;19.60;83.90;;;;;;5095632;28;20043;-53
2021/08/18 11:31:30;;;;;;;3.90;3.30;;;19.60;85.10;;;;;;5095364;28;20028;-51
2021/08/18 11:33:56;;;;;;;7.40;3.35;;;19.30;85.60;;;;;;5095711;28;20510;-53
2021/08/18 11:36:21;;;;;;;3.25;2.95;;;19.40;85.70;;;;;;5095294;28;20114;-55
2021/08/18 11:38:57;;;;;;;4.72;2.95;;;19.40;86.90;;;;;;5095388;28;20078;-52
2021/08/18 11:41:37;;;;;;;4.03;3.10;;;19.40;87.50;;;;;;5095228;28;20056;-54
2021/08/18 11:44:03;;;;;;;5.80;3.15;;;19.10;88.10;;;;;;5095990;28;20028;-56
2021/08/18 11:46:30;;;;;;;4.57;3.45;;;19.10;88.60;;;;;;5095824;28;20043;-51
2021/08/18 11:49:09;;;;;;;4.38;3.92;;;19.10;88.80;;;;;;5095684;28;20020;-52
2021/08/18 11:51:36;;;;;;;3.70;3.40;;;18.80;89.70;;;;;;5096195;28;20031;-52
2021/08/18 11:54:02;;;;;;;6.88;4.00;;;18.50;89.60;;;;;;5096198;28;20036;-54
2021/08/18 11:56:30;;;;;;;4.18;3.38;;;18.60;90.30;;;;;;5077152;28;20144;-57
2021/08/18 11:59:01;;;;;;;4.60;3.88;;;18.70;90.30;;;;;;5077930;28;20034;-54
2021/08/18 12:01:27;;;;;;;3.55;2.85;;;18.80;89.70;;;;;;5076892;28;20024;-55
2021/08/18 12:03:53;;;;;;;3.40;2.85;;;18.70;88.40;;;;;;5095899;28;20152;-57
2021/08/18 12:06:34;;;;;;;5.18;3.03;;;18.90;86.70;;;;;;5095179;28;20486;-58
2021/08/18 12:09:00;;;;;;;4.88;3.60;;;18.80;85.50;;;;;;5065775;28;20031;-55
2021/08/18 12:11:37;;;;;;;6.18;3.35;;;18.80;85.20;;;;;;5076713;28;20031;-57
2021/08/18 12:14:17;;;;;;;5.13;3.55;;;18.80;85.60;;;;;;5077498;28;20369;-55
2021/08/18 12:16:55;;;;;;;5.05;3.20;;;19.00;85.00;;;;;;5056496;28;20025;-57
2021/08/18 12:19:26;;;;;;;6.05;3.33;;;19.10;84.30;;;;;;5043311;28;20029;-59
2021/08/18 12:22:27;;;;;;;4.50;3.45;;;19.10;85.00;;;;;;5049647;28;20123;-58
2021/08/18 12:25:09;;;;;;;4.10;3.20;;;19.40;84.30;;;;;;5059692;28;20071;-53
2021/08/18 12:27:35;;;;;;;3.95;3.50;;;19.40;84.60;;;;;;5094071;28;20040;-54
2021/08/18 12:30:02;;;;;;;4.05;3.47;;;19.20;85.60;;;;;;5094592;28;20449;-53
2021/08/18 12:32:28;;;;;;;4.13;3.35;;;19.70;85.10;;;;;;5094508;28;20115;-52
2021/08/18 12:35:07;;;;;;;5.32;3.08;;;19.90;82.70;;;;;;5094277;28;20063;-53
2021/08/18 12:37:36;;;;;;;5.03;3.10;;;20.10;82.70;;;;;;5094494;28;20028;-56
2021/08/18 12:40:11;;;;;;;4.65;3.05;;;20.00;82.50;;;;;;5060121;28;20415;-52